Time;durP1;ratioP1;P1;durP2;ratioP2;P2;SDS_P1;SDS_P2;PMS_P1;PMS_P2;Temp;Humidity;BMP_temperature;BMP_pressure;BME280_temperature;BME280_humidity;BME280_pressure;Samples;Min_cycle;Max_cycle;Signal;HPM_P1;HPM_P2
2023/07/12 00:00:46;;;;;;;;;;;18.30;99.90;;;;;;5009030;28;19932;-67
2023/07/12 00:03:11;;;;;;;;;;;18.20;99.90;;;;;;5013047;28;19946;-67
2023/07/12 00:05:37;;;;;;;;;;;18.10;99.90;;;;;;4993124;28;19928;-66
2023/07/12 00:08:03;;;;;;;;;;;18.00;99.90;;;;;;5007172;28;19939;-66
2023/07/12 00:10:34;;;;;;;;;;;17.90;99.90;;;;;;5006289;28;19932;-67
2023/07/12 00:13:00;;;;;;;;;;;17.90;99.90;;;;;;5008613;28;20765;-74
2023/07/12 00:15:28;;;;;;;;;;;17.90;99.90;;;;;;5006144;28;19941;-73
2023/07/12 00:17:54;;;;;;;;;;;17.90;99.90;;;;;;5008398;28;19961;-72
2023/07/12 00:20:30;;;;;;;;;;;17.90;99.90;;;;;;5004241;28;19935;-71
2023/07/12 00:22:56;;;;;;;;;;;17.80;99.90;;;;;;5004036;28;20252;-74
2023/07/12 00:25:24;;;;;;;;;;;17.80;99.90;;;;;;5003033;28;19939;-73
2023/07/12 00:27:50;;;;;;;;;;;17.70;99.90;;;;;;5005815;28;19928;-74
2023/07/12 00:30:16;;;;;;;;;;;17.80;99.90;;;;;;5003240;28;19956;-75
2023/07/12 00:32:42;;;;;;;;;;;17.90;99.90;;;;;;5006752;28;19983;-74
2023/07/12 00:35:12;;;;;;;;;;;18.00;99.90;;;;;;5005277;28;19983;-77
2023/07/12 00:37:38;;;;;;;;;;;18.10;99.90;;;;;;5003044;28;20052;-76
2023/07/12 00:40:11;;;;;;;;;;;18.10;99.90;;;;;;5001378;28;20377;-76
2023/07/12 00:42:37;;;;;;;;;;;18.10;99.90;;;;;;5006250;28;19937;-76
2023/07/12 00:45:03;;;;;;;;;;;18.00;99.90;;;;;;4990013;28;19957;-76
2023/07/12 00:47:30;;;;;;;;;;;17.90;99.90;;;;;;5003531;28;19986;-67
2023/07/12 00:49:55;;;;;;;;;;;18.00;99.90;;;;;;4992689;28;20020;-76
2023/07/12 00:52:21;;;;;;;;;;;18.00;99.90;;;;;;5008120;28;20055;-76
2023/07/12 00:54:47;;;;;;;;;;;17.90;99.90;;;;;;5005464;28;19929;-76
2023/07/12 00:57:13;;;;;;;;;;;17.90;99.90;;;;;;5002755;28;19980;-76
2023/07/12 00:59:38;;;;;;;;;;;17.80;99.90;;;;;;5005220;28;19930;-75
2023/07/12 01:02:04;;;;;;;;;;;17.80;99.90;;;;;;4993087;28;20011;-76
2023/07/12 01:04:37;;;;;;;;;;;17.80;99.90;;;;;;5002411;28;19967;-76
2023/07/12 01:07:03;;;;;;;;;;;17.80;99.90;;;;;;4988751;28;20427;-76
2023/07/12 01:09:29;;;;;;;;;;;17.80;99.90;;;;;;5003411;28;19949;-76
2023/07/12 01:11:56;;;;;;;;;;;17.90;99.90;;;;;;5004463;28;19935;-76
2023/07/12 01:14:21;;;;;;;;;;;18.00;99.90;;;;;;5005149;28;19965;-76
2023/07/12 01:16:51;;;;;;;;;;;18.10;99.90;;;;;;5003297;28;20298;-75
2023/07/12 01:19:17;;;;;;;;;;;18.10;99.90;;;;;;5007201;28;19939;-76
2023/07/12 01:21:47;;;;;;;;;;;18.10;99.90;;;;;;4998695;28;19940;-76
2023/07/12 01:24:13;;;;;;;;;;;18.10;99.90;;;;;;4999614;28;20068;-76
2023/07/12 01:26:41;;;;;;;;;;;18.10;99.90;;;;;;4993379;28;19934;-67
2023/07/12 01:29:07;;;;;;;;;;;18.10;99.90;;;;;;5004332;28;20048;-67
2023/07/12 01:31:33;;;;;;;;;;;18.10;99.90;;;;;;4999469;28;20434;-67
2023/07/12 01:33:59;;;;;;;;;;;18.10;99.90;;;;;;5004537;28;20293;-67
2023/07/12 01:36:25;;;;;;;;;;;18.10;99.90;;;;;;5004583;28;20225;-67
2023/07/12 01:38:52;;;;;;;;;;;18.10;99.90;;;;;;5004279;28;20031;-67
2023/07/12 01:41:17;;;;;;;;;;;18.10;99.90;;;;;;5004763;28;19967;-67
2023/07/12 01:43:43;;;;;;;;;;;18.10;99.90;;;;;;5000576;28;20381;-67
2023/07/12 01:46:08;;;;;;;;;;;18.10;99.90;;;;;;5007152;28;19928;-67
2023/07/12 01:48:34;;;;;;;;;;;18.10;99.90;;;;;;5003598;28;19992;-67
2023/07/12 01:51:00;;;;;;;;;;;18.10;99.90;;;;;;5002724;28;20206;-67
2023/07/12 01:53:26;;;;;;;;;;;18.20;99.90;;;;;;5002740;28;19935;-67
2023/07/12 01:55:51;;;;;;;;;;;18.00;99.90;;;;;;5001878;28;19981;-67
2023/07/12 01:58:17;;;;;;;;;;;18.00;99.90;;;;;;5005161;28;19932;-67
2023/07/12 02:00:42;;;;;;;;;;;18.10;99.90;;;;;;5003128;28;19931;-67
2023/07/12 02:03:08;;;;;;;;;;;18.10;99.90;;;;;;4989027;28;20066;-76
2023/07/12 02:05:33;;;;;;;;;;;18.20;99.90;;;;;;5000145;28;19928;-76
2023/07/12 02:07:59;;;;;;;;;;;18.20;99.90;;;;;;5005506;28;19935;-76
2023/07/12 02:10:25;;;;;;;;;;;18.30;99.90;;;;;;5003320;28;20280;-76
2023/07/12 02:12:51;;;;;;;;;;;18.30;99.90;;;;;;5004623;28;19980;-75
2023/07/12 02:15:17;;;;;;;;;;;18.30;99.90;;;;;;5001413;28;19946;-75
2023/07/12 02:17:42;;;;;;;;;;;18.20;99.90;;;;;;5003530;28;19927;-75
2023/07/12 02:20:09;;;;;;;;;;;18.20;99.90;;;;;;4999848;28;19928;-67
2023/07/12 02:22:35;;;;;;;;;;;18.30;99.90;;;;;;4992882;28;20051;-67
2023/07/12 02:25:01;;;;;;;;;;;18.30;99.90;;;;;;5002193;28;19953;-67
2023/07/12 02:27:26;;;;;;;;;;;18.40;99.90;;;;;;5004608;28;20383;-67
2023/07/12 02:29:52;;;;;;;;;;;18.50;99.90;;;;;;5004312;28;20025;-67
2023/07/12 02:32:17;;;;;;;;;;;18.50;99.90;;;;;;5000386;28;20070;-67
2023/07/12 02:34:43;;;;;;;;;;;18.60;99.90;;;;;;5002501;28;20417;-67
2023/07/12 02:37:08;;;;;;;;;;;18.70;99.90;;;;;;5000994;28;19927;-67
2023/07/12 02:39:34;;;;;;;;;;;18.70;99.90;;;;;;5002267;28;19931;-67
2023/07/12 02:42:00;;;;;;;;;;;18.80;99.90;;;;;;5004903;28;20355;-67
2023/07/12 02:44:25;;;;;;;;;;;18.80;99.90;;;;;;5003819;28;19949;-67
2023/07/12 02:46:51;;;;;;;;;;;18.80;99.90;;;;;;5001951;28;19959;-67
2023/07/12 02:49:16;;;;;;;;;;;18.80;99.90;;;;;;5004012;28;20051;-67
2023/07/12 02:51:42;;;;;;;;;;;18.80;99.90;;;;;;5002609;28;19938;-66
2023/07/12 02:54:07;;;;;;;;;;;18.80;99.90;;;;;;4999509;28;19933;-67
2023/07/12 02:56:33;;;;;;;;;;;18.80;99.90;;;;;;5003316;28;20314;-67
2023/07/12 02:58:58;;;;;;;;;;;18.90;99.90;;;;;;4981706;28;20392;-67
2023/07/12 03:01:25;;;;;;;;;;;18.80;99.90;;;;;;5002413;28;19933;-67
2023/07/12 03:03:52;;;;;;;;;;;18.80;99.90;;;;;;4991396;28;20177;-67
2023/07/12 03:06:17;;;;;;;;;;;18.80;99.90;;;;;;4998110;28;19967;-67
2023/07/12 03:08:43;;;;;;;;;;;18.70;99.90;;;;;;5004206;28;20643;-67
2023/07/12 03:11:09;;;;;;;;;;;18.70;99.90;;;;;;5003476;28;19953;-67
2023/07/12 03:13:34;;;;;;;;;;;18.70;99.90;;;;;;5004760;28;20002;-67
2023/07/12 03:16:04;;;;;;;;;;;18.70;99.90;;;;;;5001174;28;19933;-67
2023/07/12 03:18:29;;;;;;;;;;;18.70;99.90;;;;;;5001232;28;23866;-67
2023/07/12 03:21:02;;;;;;;;;;;18.70;99.90;;;;;;5001923;28;19965;-67
2023/07/12 03:23:32;;;;;;;;;;;18.70;99.90;;;;;;5002472;28;20061;-67
2023/07/12 03:25:58;;;;;;;;;;;18.70;99.90;;;;;;5006275;28;19942;-67
2023/07/12 03:28:23;;;;;;;;;;;18.70;99.90;;;;;;4992313;28;19935;-67
2023/07/12 03:30:56;;;;;;;;;;;18.70;99.90;;;;;;5005538;28;19934;-67
2023/07/12 03:33:21;;;;;;;;;;;18.70;99.90;;;;;;5006350;28;19948;-76
2023/07/12 03:35:50;;;;;;;;;;;18.70;99.90;;;;;;5005390;28;20801;-75
2023/07/12 03:38:16;;;;;;;;;;;18.70;99.90;;;;;;5005667;28;19946;-76
2023/07/12 03:40:44;;;;;;;;;;;18.80;99.90;;;;;;4993482;28;19958;-76
2023/07/12 03:43:09;;;;;;;;;;;18.80;99.90;;;;;;5006060;28;19965;-75
2023/07/12 03:45:35;;;;;;;;;;;18.90;99.90;;;;;;4982676;28;20287;-75
2023/07/12 03:48:00;;;;;;;;;;;18.90;99.90;;;;;;5009029;28;20705;-76
2023/07/12 03:50:25;;;;;;;;;;;19.00;99.90;;;;;;5004685;28;19930;-75
2023/07/12 03:52:51;;;;;;;;;;;18.90;99.90;;;;;;5004950;28;19936;-75
2023/07/12 03:55:16;;;;;;;;;;;19.00;99.90;;;;;;5003070;28;19944;-75
2023/07/12 03:57:42;;;;;;;;;;;19.00;99.90;;;;;;5007342;28;19928;-76
2023/07/12 04:00:08;;;;;;;;;;;19.00;99.90;;;;;;5005008;28;19938;-76
2023/07/12 04:02:34;;;;;;;;;;;19.10;99.90;;;;;;5000822;28;19979;-76
2023/07/12 04:05:00;;;;;;;;;;;19.20;99.90;;;;;;4993718;28;19963;-76
2023/07/12 04:07:25;;;;;;;;;;;19.30;99.90;;;;;;5009244;28;19986;-76
2023/07/12 04:09:51;;;;;;;;;;;19.40;99.90;;;;;;5005747;28;19934;-75
2023/07/12 04:12:17;;;;;;;;;;;19.40;99.90;;;;;;5004323;28;19941;-67
2023/07/12 04:14:42;;;;;;;;;;;19.40;99.90;;;;;;5004275;28;19964;-67
2023/07/12 04:17:09;;;;;;;;;;;19.50;99.90;;;;;;5007297;28;20633;-67
2023/07/12 04:19:34;;;;;;;;;;;19.50;99.90;;;;;;4998546;28;19941;-67
2023/07/12 04:21:59;;;;;;;;;;;19.50;99.90;;;;;;5004888;28;19962;-67
2023/07/12 04:24:25;;;;;;;;;;;19.60;99.90;;;;;;5003328;28;19952;-67
2023/07/12 04:26:50;;;;;;;;;;;19.70;99.90;;;;;;5006785;28;21421;-67
2023/07/12 04:29:16;;;;;;;;;;;19.70;99.90;;;;;;5002156;28;19987;-67
2023/07/12 04:31:41;;;;;;;;;;;19.80;99.90;;;;;;5005388;28;20436;-67
2023/07/12 04:34:07;;;;;;;;;;;19.90;99.90;;;;;;5005854;28;19972;-67
2023/07/12 04:36:32;;;;;;;;;;;20.00;99.90;;;;;;5001879;28;20012;-67
2023/07/12 04:38:58;;;;;;;;;;;20.10;99.90;;;;;;5003899;28;20330;-67
2023/07/12 04:41:24;;;;;;;;;;;20.10;99.90;;;;;;5008404;28;19934;-67
2023/07/12 04:43:50;;;;;;;;;;;20.10;99.90;;;;;;5002387;28;19925;-67
2023/07/12 04:46:15;;;;;;;;;;;20.20;99.90;;;;;;5005187;28;19930;-67
2023/07/12 04:48:41;;;;;;;;;;;20.30;99.90;;;;;;5007825;28;20311;-67
2023/07/12 04:51:07;;;;;;;;;;;20.30;99.90;;;;;;5005046;28;20059;-67
2023/07/12 04:53:33;;;;;;;;;;;20.30;99.90;;;;;;5001294;28;20379;-67
2023/07/12 04:55:59;;;;;;;;;;;20.40;99.90;;;;;;5008654;28;19927;-67
2023/07/12 04:58:25;;;;;;;;;;;20.40;99.90;;;;;;5006864;28;19964;-67
2023/07/12 05:00:50;;;;;;;;;;;20.40;99.90;;;;;;4988099;28;19929;-67
2023/07/12 05:03:16;;;;;;;;;;;20.40;99.90;;;;;;5006283;28;19950;-67
2023/07/12 05:05:41;;;;;;;;;;;20.40;99.90;;;;;;5002992;28;20162;-76
2023/07/12 05:08:07;;;;;;;;;;;20.40;99.90;;;;;;5001247;28;19985;-75
2023/07/12 05:10:33;;;;;;;;;;;20.30;99.90;;;;;;5004927;28;21470;-75
2023/07/12 05:12:58;;;;;;;;;;;20.30;99.90;;;;;;4987078;28;19928;-74
2023/07/12 05:15:24;;;;;;;;;;;20.20;99.90;;;;;;5001558;28;19961;-75
2023/07/12 05:17:49;;;;;;;;;;;20.20;99.90;;;;;;4996393;28;19926;-76
2023/07/12 05:20:16;;;;;;;;;;;20.10;99.90;;;;;;4997834;28;20366;-76
2023/07/12 05:22:43;;;;;;;;;;;20.00;99.90;;;;;;4992742;28;20818;-77
2023/07/12 05:25:09;;;;;;;;;;;19.90;99.90;;;;;;4998216;28;19964;-77
2023/07/12 05:27:35;;;;;;;;;;;19.90;99.90;;;;;;4983219;28;20441;-76
2023/07/12 05:30:01;;;;;;;;;;;19.80;99.90;;;;;;4984834;28;19983;-76
2023/07/12 05:32:26;;;;;;;;;;;19.70;99.90;;;;;;4988120;28;19936;-75
2023/07/12 05:34:52;;;;;;;;;;;19.70;99.90;;;;;;4990946;28;20456;-76
2023/07/12 05:37:17;;;;;;;;;;;19.50;99.90;;;;;;4974616;28;19933;-76
2023/07/12 05:39:43;;;;;;;;;;;19.50;99.90;;;;;;4980650;28;20725;-76
2023/07/12 05:42:09;;;;;;;;;;;19.50;99.90;;;;;;4988881;28;20316;-75
2023/07/12 05:44:34;;;;;;;;;;;19.50;99.90;;;;;;4985554;28;20548;-76
2023/07/12 05:47:00;;;;;;;;;;;19.50;99.90;;;;;;4973507;28;19995;-76
2023/07/12 05:49:25;;;;;;;;;;;19.40;99.90;;;;;;4997576;28;19980;-78
2023/07/12 05:51:51;;;;;;;;;;;19.30;99.90;;;;;;4993133;28;20434;-76
2023/07/12 05:54:17;;;;;;;;;;;19.20;99.90;;;;;;4994351;28;19936;-75
2023/07/12 05:56:42;;;;;;;;;;;19.20;99.90;;;;;;4993875;28;19942;-74
2023/07/12 05:59:08;;;;;;;;;;;19.20;99.90;;;;;;4993593;28;19939;-76
2023/07/12 06:01:34;;;;;;;;;;;19.30;99.90;;;;;;4991561;28;19956;-75
2023/07/12 06:03:59;;;;;;;;;;;19.30;99.90;;;;;;4987389;28;20341;-77
2023/07/12 06:06:25;;;;;;;;;;;19.40;99.90;;;;;;5001586;28;19938;-74
2023/07/12 06:08:50;;;;;;;;;;;19.40;99.90;;;;;;4985398;28;20440;-73
2023/07/12 06:11:16;;;;;;;;;;;19.40;99.90;;;;;;4994435;28;19972;-73
2023/07/12 06:13:41;;;;;;;;;;;19.40;99.90;;;;;;4991015;28;19973;-73
2023/07/12 06:16:07;;;;;;;;;;;19.40;99.90;;;;;;5002062;28;19928;-73
2023/07/12 06:18:33;;;;;;;;;;;19.40;99.90;;;;;;5001785;28;20028;-74
2023/07/12 06:20:59;;;;;;;;;;;19.50;99.90;;;;;;5003677;28;20633;-73
2023/07/12 06:23:25;;;;;;;;;;;19.50;99.90;;;;;;4972662;28;20817;-74
2023/07/12 06:25:51;;;;;;;;;;;19.70;99.90;;;;;;4991318;28;19930;-73
2023/07/12 06:28:17;;;;;;;;;;;19.70;99.90;;;;;;4995609;28;19930;-74
2023/07/12 06:30:42;;;;;;;;;;;19.80;99.90;;;;;;4989552;28;19946;-74
2023/07/12 06:33:08;;;;;;;;;;;20.00;99.90;;;;;;5000305;28;20499;-74
2023/07/12 06:35:34;;;;;;;;;;;20.10;99.90;;;;;;4992104;28;20040;-70
2023/07/12 06:37:59;;;;;;;;;;;20.30;99.90;;;;;;4973003;28;19934;-70
2023/07/12 06:40:25;;;;;;;;;;;20.40;99.90;;;;;;4984568;28;20351;-69
2023/07/12 06:42:50;;;;;;;;;;;20.50;99.90;;;;;;4994491;28;21147;-69
2023/07/12 06:45:16;;;;;;;;;;;20.70;99.90;;;;;;4983811;28;19953;-70
2023/07/12 06:47:42;;;;;;;;;;;20.90;99.90;;;;;;4985268;28;22163;-70
2023/07/12 06:50:08;;;;;;;;;;;21.00;99.90;;;;;;4977426;28;19942;-69
2023/07/12 06:52:33;;;;;;;;;;;21.10;99.90;;;;;;4978792;28;22096;-69
2023/07/12 06:54:59;;;;;;;;;;;21.20;99.90;;;;;;4990665;28;19940;-69
2023/07/12 06:57:24;;;;;;;;;;;21.20;99.90;;;;;;5000068;28;19943;-69
2023/07/12 06:59:50;;;;;;;;;;;21.30;99.90;;;;;;4993780;28;20710;-69
2023/07/12 07:02:15;;;;;;;;;;;21.30;99.90;;;;;;4980079;28;19942;-69
2023/07/12 07:04:41;;;;;;;;;;;21.40;99.90;;;;;;4995794;28;19958;-70
2023/07/12 07:07:06;;;;;;;;;;;21.60;99.90;;;;;;4995411;28;20712;-69
2023/07/12 07:09:33;;;;;;;;;;;21.60;99.90;;;;;;4994369;28;19992;-69
2023/07/12 07:11:59;;;;;;;;;;;21.60;99.90;;;;;;4998614;28;20319;-69
2023/07/12 07:14:25;;;;;;;;;;;21.70;99.90;;;;;;4996078;28;19966;-71
2023/07/12 07:16:50;;;;;;;;;;;21.90;99.90;;;;;;4993189;28;19965;-70
2023/07/12 07:19:16;;;;;;;;;;;22.10;99.90;;;;;;4999220;28;19929;-71
2023/07/12 07:21:41;;;;;;;;;;;22.30;99.90;;;;;;4997718;28;19966;-70
2023/07/12 07:24:07;;;;;;;;;;;22.40;99.90;;;;;;5001646;28;19954;-70
2023/07/12 07:26:33;;;;;;;;;;;22.50;99.90;;;;;;5005134;28;20859;-70
2023/07/12 07:28:58;;;;;;;;;;;22.50;99.90;;;;;;4991563;28;19940;-71
2023/07/12 07:31:24;;;;;;;;;;;22.60;99.90;;;;;;5000846;28;19961;-71
2023/07/12 07:33:49;;;;;;;;;;;22.60;99.90;;;;;;5000600;28;19948;-70
2023/07/12 07:36:15;;;;;;;;;;;22.80;99.90;;;;;;4990520;28;19955;-70
2023/07/12 07:38:40;;;;;;;;;;;22.90;99.90;;;;;;4992684;28;20336;-70
2023/07/12 07:41:09;;;;;;;;;;;22.90;99.90;;;;;;4986294;28;19993;-70
2023/07/12 07:43:35;;;;;;;;;;;22.90;99.90;;;;;;4985790;28;20434;-70
2023/07/12 07:46:01;;;;;;;;;;;22.90;99.90;;;;;;4989819;28;20423;-71
2023/07/12 07:48:27;;;;;;;;;;;23.00;99.90;;;;;;4994179;28;20055;-71
2023/07/12 07:50:52;;;;;;;;;;;23.00;99.90;;;;;;4978982;28;20256;-71
2023/07/12 07:53:18;;;;;;;;;;;23.10;99.90;;;;;;4991902;28;19943;-71
2023/07/12 07:55:44;;;;;;;;;;;23.10;99.90;;;;;;4969113;28;20360;-71
2023/07/12 07:58:10;;;;;;;;;;;23.30;99.90;;;;;;4986536;28;19932;-71
2023/07/12 08:00:36;;;;;;;;;;;23.40;99.90;;;;;;4992517;28;19955;-72
2023/07/12 08:03:06;;;;;;;;;;;23.50;99.90;;;;;;4988720;28;21061;-70
2023/07/12 08:05:31;;;;;;;;;;;23.60;99.90;;;;;;4998450;28;19999;-71
2023/07/12 08:07:57;;;;;;;;;;;23.60;99.90;;;;;;4995439;28;20911;-71
2023/07/12 08:10:22;;;;;;;;;;;23.70;99.90;;;;;;5004127;28;19960;-73
2023/07/12 08:12:48;;;;;;;;;;;23.70;99.90;;;;;;5000446;28;19958;-73
2023/07/12 08:15:14;;;;;;;;;;;23.70;99.90;;;;;;4997065;28;19935;-73
2023/07/12 08:17:39;;;;;;;;;;;23.90;99.90;;;;;;5007735;28;19921;-72
2023/07/12 08:20:06;;;;;;;;;;;24.10;99.90;;;;;;5011343;28;19979;-73
2023/07/12 08:22:32;;;;;;;;;;;24.20;99.90;;;;;;5004762;28;20515;-73
2023/07/12 08:24:57;;;;;;;;;;;24.30;99.90;;;;;;5004925;28;19960;-73
2023/07/12 08:27:23;;;;;;;;;;;24.40;99.90;;;;;;5000239;28;19943;-74
2023/07/12 08:29:48;;;;;;;;;;;24.50;99.90;;;;;;5004106;28;19926;-68
2023/07/12 08:32:14;;;;;;;;;;;24.50;99.90;;;;;;5001690;28;20414;-68
2023/07/12 08:34:40;;;;;;;;;;;24.40;99.90;;;;;;5001186;28;19963;-69
2023/07/12 08:37:06;;;;;;;;;;;24.40;99.90;;;;;;5006061;28;20077;-68
2023/07/12 08:39:31;;;;;;;;;;;24.50;99.90;;;;;;4998182;28;19987;-68
2023/07/12 08:41:58;;;;;;;;;;;24.60;99.90;;;;;;5002743;28;19958;-68
2023/07/12 08:44:23;;;;;;;;;;;24.50;99.90;;;;;;5004372;28;19956;-67
2023/07/12 08:46:54;;;;;;;;;;;24.60;99.90;;;;;;5005883;28;19950;-68
2023/07/12 08:49:21;;;;;;;;;;;24.60;99.90;;;;;;5007506;28;19931;-68
2023/07/12 08:51:47;;;;;;;;;;;24.70;99.90;;;;;;5007205;28;19935;-67
2023/07/12 08:54:23;;;;;;;;;;;24.80;99.90;;;;;;5000634;28;19934;-68
2023/07/12 08:56:50;;;;;;;;;;;24.80;99.90;;;;;;5003271;28;19954;-68
2023/07/12 08:59:16;;;;;;;;;;;24.80;99.90;;;;;;5001581;28;20262;-68
2023/07/12 09:01:47;;;;;;;;;;;24.90;99.90;;;;;;5003359;28;20070;-68
2023/07/12 09:04:23;;;;;;;;;;;24.90;99.90;;;;;;5000545;28;19932;-72
2023/07/12 09:06:53;;;;;;;;;;;24.80;99.90;;;;;;4991573;28;20553;-68
2023/07/12 09:09:19;;;;;;;;;;;24.70;99.90;;;;;;5001810;28;19934;-68
2023/07/12 09:11:45;;;;;;;;;;;24.80;99.90;;;;;;4998115;28;19937;-68
2023/07/12 09:14:17;;;;;;;;;;;24.80;99.90;;;;;;5001223;28;20352;-68
2023/07/12 09:16:45;;;;;;;;;;;24.90;99.90;;;;;;5003465;28;20081;-68
2023/07/12 09:19:20;;;;;;;;;;;24.90;99.90;;;;;;4996597;28;19934;-68
2023/07/12 09:21:49;;;;;;;;;;;24.90;99.90;;;;;;4997817;28;20087;-68
2023/07/12 09:24:19;;;;;;;;;;;24.90;99.90;;;;;;5003480;28;19954;-68
2023/07/12 09:26:45;;;;;;;;;;;25.00;99.90;;;;;;5000677;28;20419;-68
2023/07/12 09:29:24;;;;;;;;;;;25.10;99.90;;;;;;5000162;28;19922;-68
2023/07/12 09:31:51;;;;;;;;;;;25.20;99.90;;;;;;4993237;28;19966;-67
2023/07/12 09:34:31;;;;;;;;;;;25.20;99.90;;;;;;5000533;28;19953;-68
2023/07/12 09:36:58;;;;;;;;;;;25.10;99.90;;;;;;4987314;28;19945;-68
2023/07/12 09:39:25;;;;;;;;;;;25.10;99.90;;;;;;4994598;28;20298;-69
2023/07/12 09:41:55;;;;;;;;;;;25.10;99.90;;;;;;4998780;28;20715;-71
2023/07/12 09:44:21;;;;;;;;;;;25.10;99.90;;;;;;4992900;28;19997;-72
2023/07/12 09:46:53;;;;;;;;;;;25.20;99.90;;;;;;4988182;28;19966;-71
2023/07/12 09:49:27;;;;;;;;;;;25.30;99.90;;;;;;4967549;28;19930;-71
2023/07/12 09:52:19;;;;;;;;;;;25.50;99.90;;;;;;4985502;28;20009;-71
2023/07/12 09:54:44;;;;;;;;;;;25.50;99.90;;;;;;4977172;28;20089;-71
2023/07/12 09:57:17;;;;;;;;;;;25.60;99.90;;;;;;4970847;28;19953;-71
2023/07/12 09:59:56;;;;;;;;;;;25.70;99.90;;;;;;4977705;28;19935;-70
2023/07/12 10:02:25;;;;;;;;;;;25.70;99.90;;;;;;4975948;28;20355;-71
2023/07/12 10:04:56;;;;;;;;;;;25.70;99.90;;;;;;4981148;28;19960;-71
2023/07/12 10:07:21;;;;;;;;;;;25.80;99.90;;;;;;4979792;28;19942;-71
2023/07/12 10:09:47;;;;;;;;;;;25.90;99.90;;;;;;4969755;28;19917;-70
2023/07/12 10:12:23;;;;;;;;;;;25.90;99.90;;;;;;4975872;28;19917;-70
2023/07/12 10:14:49;;;;;;;;;;;26.00;99.90;;;;;;4963135;28;19929;-71
2023/07/12 10:17:24;;;;;;;;;;;26.00;99.90;;;;;;4964922;28;19941;-67
2023/07/12 10:19:53;;;;;;;;;;;26.10;99.90;;;;;;4965359;28;19948;-68
2023/07/12 10:22:26;;;;;;;;;;;26.20;99.90;;;;;;4955616;28;19982;-67
2023/07/12 10:24:52;;;;;;;;;;;26.30;99.90;;;;;;4971061;28;19966;-67
2023/07/12 10:27:23;;;;;;;;;;;26.20;99.90;;;;;;4971132;28;20936;-68
2023/07/12 10:30:15;;;;;;;;;;;26.20;99.90;;;;;;4981265;28;19990;-68
2023/07/12 10:32:43;;;;;;;;;;;26.40;99.90;;;;;;4983046;28;19932;-68
2023/07/12 10:35:14;;;;;;;;;;;26.50;99.90;;;;;;4981217;28;19954;-69
2023/07/12 10:37:44;;;;;;;;;;;26.60;99.90;;;;;;4984504;28;19927;-71
2023/07/12 10:40:15;;;;;;;;;;;26.70;99.90;;;;;;4981706;28;19935;-71
2023/07/12 10:42:53;;;;;;;;;;;26.80;99.90;;;;;;4970686;28;20040;-71
2023/07/12 10:45:23;;;;;;;;;;;26.90;99.90;;;;;;4970516;28;19956;-72
2023/07/12 10:47:49;;;;;;;;;;;26.90;99.90;;;;;;5001175;28;19958;-71
2023/07/12 10:50:23;;;;;;;;;;;26.90;99.90;;;;;;5000600;28;19941;-72
2023/07/12 10:52:54;;;;;;;;;;;27.00;99.90;;;;;;4986292;28;19960;-72
2023/07/12 10:55:35;;;;;;;;;;;27.00;99.90;;;;;;4993456;28;20458;-69
2023/07/12 10:58:19;;;;;;;;;;;27.10;99.90;;;;;;5001997;28;19932;-69
2023/07/12 11:00:49;;;;;;;;;;;27.20;99.90;;;;;;5002221;28;19935;-69
2023/07/12 11:03:17;;;;;;;;;;;27.30;99.90;;;;;;5003157;28;19931;-69
2023/07/12 11:05:45;;;;;;;;;;;27.30;99.90;;;;;;4998460;28;19979;-69
2023/07/12 11:08:34;;;;;;;;;;;27.50;99.90;;;;;;5000730;28;19944;-69
2023/07/12 11:11:00;;;;;;;;;;;27.60;99.90;;;;;;4997277;28;19975;-69
2023/07/12 11:13:29;;;;;;;;;;;27.60;99.90;;;;;;5003105;28;19928;-71
2023/07/12 11:16:05;;;;;;;;;;;27.60;99.90;;;;;;4997126;28;19962;-71
2023/07/12 11:18:34;;;;;;;;;;;27.70;99.90;;;;;;4988552;28;19928;-69
2023/07/12 11:21:02;;;;;;;;;;;27.80;99.90;;;;;;4997189;28;20347;-69
2023/07/12 11:23:29;;;;;;;;;;;27.90;99.90;;;;;;4996929;28;19933;-68
2023/07/12 11:26:00;;;;;;;;;;;27.90;99.90;;;;;;4996931;28;19935;-69
2023/07/12 11:28:28;;;;;;;;;;;27.90;99.90;;;;;;4999697;28;19989;-69
2023/07/12 11:31:12;;;;;;;;;;;27.90;99.90;;;;;;4991867;28;19937;-69
2023/07/12 11:33:38;;;;;;;;;;;28.00;99.90;;;;;;5001052;28;19979;-71
2023/07/12 11:36:13;;;;;;;;;;;28.10;99.90;;;;;;5002947;28;20380;-71
2023/07/12 11:38:41;;;;;;;;;;;28.30;99.90;;;;;;5005628;28;20025;-71
2023/07/12 11:41:13;;;;;;;;;;;28.40;99.90;;;;;;5003672;28;19956;-71
2023/07/12 11:43:40;;;;;;;;;;;28.50;99.90;;;;;;5001433;28;20629;-71
2023/07/12 11:46:16;;;;;;;;;;;28.50;99.90;;;;;;4997868;28;20362;-71
2023/07/12 11:48:49;;;;;;;;;;;28.50;99.90;;;;;;4992392;28;19947;-70
2023/07/12 11:51:17;;;;;;;;;;;28.50;99.90;;;;;;5001165;28;19936;-71
2023/07/12 11:53:50;;;;;;;;;;;28.50;99.90;;;;;;5007193;28;20004;-71
2023/07/12 11:56:15;;;;;;;;;;;28.50;99.90;;;;;;5007856;28;19982;-71
2023/07/12 11:58:41;;;;;;;;;;;28.50;99.90;;;;;;5010729;28;20566;-70
2023/07/12 12:01:13;;;;;;;;;;;28.50;99.90;;;;;;5007495;28;19941;-71
2023/07/12 12:03:38;;;;;;;;;;;28.40;99.90;;;;;;5008326;28;20007;-71
2023/07/12 12:06:05;;;;;;;;;;;28.30;99.90;;;;;;5005060;28;20051;-70
2023/07/12 12:08:31;;;;;;;;;;;28.30;99.90;;;;;;4991211;28;20056;-68
2023/07/12 12:10:57;;;;;;;;;;;28.30;99.90;;;;;;4989398;28;19929;-68
2023/07/12 12:13:29;;;;;;;;;;;28.40;99.90;;;;;;4998669;28;19938;-69
2023/07/12 12:16:06;;;;;;;;;;;28.50;99.90;;;;;;4994940;28;19983;-69
2023/07/12 12:18:32;;;;;;;;;;;28.70;99.90;;;;;;4998724;28;20642;-68
2023/07/12 12:21:14;;;;;;;;;;;28.80;99.90;;;;;;5005013;28;19963;-69
2023/07/12 12:23:41;;;;;;;;;;;28.70;99.90;;;;;;5001648;28;19992;-69
2023/07/12 12:26:21;;;;;;;;;;;28.70;99.90;;;;;;4998829;28;19944;-68
2023/07/12 12:28:57;;;;;;;;;;;28.80;99.90;;;;;;5003934;28;20055;-68
2023/07/12 12:31:23;;;;;;;;;;;28.90;99.90;;;;;;4997343;28;19945;-67
2023/07/12 12:33:51;;;;;;;;;;;28.90;99.90;;;;;;5003711;28;20079;-67
2023/07/12 12:36:20;;;;;;;;;;;28.90;99.90;;;;;;5008842;28;19930;-67
2023/07/12 12:38:54;;;;;;;;;;;29.00;99.90;;;;;;5001276;28;19918;-68
2023/07/12 12:41:20;;;;;;;;;;;29.00;99.90;;;;;;4998760;28;19960;-68
2023/07/12 12:43:59;;;;;;;;;;;29.30;99.90;;;;;;4995553;28;20056;-68
2023/07/12 12:46:24;;;;;;;;;;;29.40;99.90;;;;;;5000593;28;20045;-67
2023/07/12 12:48:51;;;;;;;;;;;29.50;99.90;;;;;;5000807;28;19934;-68
2023/07/12 12:51:17;;;;;;;;;;;29.60;99.90;;;;;;5005853;28;19939;-67
2023/07/12 12:53:43;;;;;;;;;;;29.60;99.90;;;;;;5003198;28;19941;-67
2023/07/12 12:56:11;;;;;;;;;;;29.60;99.90;;;;;;4988179;28;19937;-66
2023/07/12 12:58:37;;;;;;;;;;;29.60;99.90;;;;;;4999702;28;20040;-67
2023/07/12 13:01:02;;;;;;;;;;;29.50;99.90;;;;;;4999340;28;19948;-68
2023/07/12 13:03:28;;;;;;;;;;;29.50;99.90;;;;;;5002746;28;20438;-67
2023/07/12 13:05:53;;;;;;;;;;;29.60;99.90;;;;;;4997389;28;19936;-66
2023/07/12 13:08:19;;;;;;;;;;;29.60;99.90;;;;;;5003476;28;20026;-66
2023/07/12 13:10:44;;;;;;;;;;;29.50;99.90;;;;;;5005100;28;19930;-66
2023/07/12 13:13:14;;;;;;;;;;;29.40;99.90;;;;;;5004518;28;20327;-66
2023/07/12 13:15:40;;;;;;;;;;;29.50;99.90;;;;;;5005886;28;20408;-66
2023/07/12 13:18:09;;;;;;;;;;;29.50;99.90;;;;;;5007049;28;19931;-66
2023/07/12 13:20:34;;;;;;;;;;;29.50;99.90;;;;;;5006055;28;19934;-66
2023/07/12 13:23:00;;;;;;;;;;;29.50;99.90;;;;;;5003519;28;19996;-68
2023/07/12 13:25:25;;;;;;;;;;;29.60;99.90;;;;;;5006113;28;19997;-68
2023/07/12 13:27:54;;;;;;;;;;;29.60;99.90;;;;;;5003280;28;20530;-68
2023/07/12 13:30:20;;;;;;;;;;;29.60;99.90;;;;;;5003722;28;21500;-68
2023/07/12 13:32:45;;;;;;;;;;;29.60;99.90;;;;;;4995890;28;19930;-68
2023/07/12 13:35:15;;;;;;;;;;;29.60;99.90;;;;;;4990648;28;19937;-68
2023/07/12 13:37:41;;;;;;;;;;;29.60;99.90;;;;;;5005543;28;19951;-69
2023/07/12 13:40:11;;;;;;;;;;;29.70;99.90;;;;;;4995845;28;20465;-69
2023/07/12 13:42:37;;;;;;;;;;;29.80;99.90;;;;;;4997958;28;19930;-69
2023/07/12 13:45:02;;;;;;;;;;;29.70;99.90;;;;;;4998148;28;20350;-69
2023/07/12 13:47:29;;;;;;;;;;;29.70;99.90;;;;;;4997894;28;19953;-69
2023/07/12 13:49:55;;;;;;;;;;;29.70;99.90;;;;;;5000555;28;19945;-69
2023/07/12 13:52:23;;;;;;;;;;;29.60;99.90;;;;;;4981828;28;19929;-69
2023/07/12 13:54:49;;;;;;;;;;;29.60;99.90;;;;;;4996377;28;21309;-69
2023/07/12 13:57:15;;;;;;;;;;;29.60;99.90;;;;;;5008258;28;20039;-69
2023/07/12 13:59:41;;;;;;;;;;;29.60;99.90;;;;;;5003376;28;19939;-69
2023/07/12 14:02:16;;;;;;;;;;;29.50;99.90;;;;;;4997261;28;19950;-69
2023/07/12 14:04:41;;;;;;;;;;;29.40;99.90;;;;;;5003444;28;19953;-69
2023/07/12 14:07:10;;;;;;;;;;;29.30;99.90;;;;;;4997959;28;19985;-69
2023/07/12 14:09:37;;;;;;;;;;;29.30;99.90;;;;;;5001913;28;19930;-69
2023/07/12 14:12:03;;;;;;;;;;;29.40;99.90;;;;;;5004284;28;19930;-69
2023/07/12 14:14:29;;;;;;;;;;;29.50;99.90;;;;;;5006032;28;19944;-70
2023/07/12 14:16:54;;;;;;;;;;;29.70;99.90;;;;;;4997870;28;19923;-70